aviador You're here:

SUMU Decoded Metar

MONTEVIDEO in URUGUAY
Report Time2017-12-11 09:00:00
UTC Time2017-12-11 09:17:03
Flight Rules vfr VFR
Wind160° at 14 kt
W.Decomp.*RWY 19: 13.1 kt HW 5 kt LCW
RWY 24: 4.6 kt HW 13.2 kt LCW
W.Rank160° ranks 12
Current wind is above 160° avg. (8.8)
Visibility9999 m
Phenomena:N/A
Clouds:Broken 030 Hf
Expected CloudBase > 2,400 ft AGL from Temp-Dew spread
Ceiling3,000 ft
Temp16°C (ISA +1)
Dew Point10°C (68% RH)
AAT11.0°C
QNH1014 hPa
Density Alt381 ft
Elevation105 ft
Report Wrong Elevation
Raw Report
METAR SUMU 110900Z 16014KT 9999 BKN030 16/10 Q1014 NOSIG=

Extra information for SUMU:More info

Metar Taf Metar & Taf Last 4 Metars F.Rules Stats Wind Profile Meteogram Temp Stats Airport Information Weather charts Add Link Nearby VenuesMetar ALERT Operation Metar Decoded Social comments